0TS1 weather

Dooley Airport
Justin, Texas, United States

Public forecast

Using degrees Fahrenheit for public forecast. Weather courtesy of forecast.io.

Closest aviation weather report (METAR) to Dooley Airport

Closest report is Fort Worth Alliance Airport, 7.1 nm (13.1 km) SSW. Retrieved 2020/06/04 22:53 UTC (37 minutes ago):

KAFW 042253Z 16013KT 10SM SCT055 SCT090 SCT250 34/21 A2978 RMK AO2 SLP066 T03440211

Closest aviation forecast (TAF) to Dooley Airport

Closest forecast is Fort Worth Alliance Airport, 7.1 nm (13.1 km) SSW. Retrieved 2020/06/04 18:22 UTC (5 hours ago):

TAF KAFW 041720Z 0418/0518 20009KT P6SM FEW060 SCT300 FM050100 17009KT P6SM SCT120 BKN200 FM051400 20011KT P6SM SKC